Time;durP1;ratioP1;P1;durP2;ratioP2;P2;SDS_P1;SDS_P2;PMS_P1;PMS_P2;Temp;Humidity;BMP_temperature;BMP_pressure;BME280_temperature;BME280_humidity;BME280_pressure;Samples;Min_cycle;Max_cycle;Signal;HPM_P1;HPM_P2
2021/11/02 00:01:17;;;;;;;12.02;5.13;;;;;;;5.66;100.00;99854.25;10582314;28;20039;-65
2021/11/02 00:06:20;;;;;;;8.45;4.75;;;;;;;5.93;100.00;99852.81;10582501;28;20055;-67
2021/11/02 00:11:22;;;;;;;5.38;4.32;;;;;;;6.10;100.00;99849.34;10582015;28;20051;-66
2021/11/02 00:16:24;;;;;;;8.98;4.53;;;;;;;6.06;100.00;99845.22;10582575;28;20047;-65
2021/11/02 00:21:30;;;;;;;10.32;5.35;;;;;;;6.35;100.00;99850.59;10581721;28;20051;-65
2021/11/02 00:26:32;;;;;;;8.30;4.07;;;;;;;6.08;100.00;99858.13;10564599;28;20048;-67
2021/11/02 00:31:35;;;;;;;12.45;4.13;;;;;;;6.28;100.00;99862.25;10563636;28;20526;-67
2021/11/02 00:36:38;;;;;;;4.90;4.28;;;;;;;5.97;100.00;99858.72;10563881;28;20052;-66
2021/11/02 00:41:40;;;;;;;7.55;3.80;;;;;;;6.04;100.00;99849.66;10581124;28;20051;-67
2021/11/02 00:46:43;;;;;;;11.23;4.30;;;;;;;6.18;100.00;99853.28;10581474;28;20062;-66
2021/11/02 00:51:46;;;;;;;5.13;4.07;;;;;;;5.89;100.00;99853.88;10581102;28;20452;-68
2021/11/02 00:56:48;;;;;;;5.05;3.45;;;;;;;5.64;100.00;99856.94;10581465;28;20054;-66
2021/11/02 01:01:50;;;;;;;8.88;4.55;;;;;;;5.69;100.00;99849.72;10581110;28;20066;-65
2021/11/02 01:06:53;;;;;;;5.78;4.30;;;;;;;5.85;100.00;99851.53;10585155;28;20050;-66
2021/11/02 01:11:56;;;;;;;9.30;4.25;;;;;;;5.97;100.00;99856.13;10588853;28;20043;-65
2021/11/02 01:16:58;;;;;;;10.35;4.30;;;;;;;5.66;100.00;99852.47;10588754;28;20054;-66
2021/11/02 01:22:01;;;;;;;15.50;5.68;;;;;;;5.87;100.00;99842.75;10588659;28;20092;-67
2021/11/02 01:27:04;;;;;;;7.85;4.90;;;;;;;5.50;100.00;99846.44;10588650;28;20054;-65
2021/11/02 01:32:06;;;;;;;10.77;6.15;;;;;;;5.61;100.00;99844.09;10570287;28;20044;-66
2021/11/02 01:37:09;;;;;;;5.47;3.70;;;;;;;5.58;100.00;99834.72;10588353;28;20059;-66
2021/11/02 01:42:11;;;;;;;7.93;4.45;;;;;;;5.66;100.00;99841.25;10587598;28;20048;-65
2021/11/02 01:47:14;;;;;;;10.75;5.10;;;;;;;5.37;100.00;99849.63;10588070;28;20047;-66
2021/11/02 01:52:16;;;;;;;7.72;3.60;;;;;;;5.31;100.00;99841.31;10569558;28;20044;-66
2021/11/02 01:57:19;;;;;;;7.00;3.45;;;;;;;5.31;100.00;99836.13;10587214;28;20048;-66
2021/11/02 02:02:45;;;;;;;8.75;4.43;;;;;;;5.42;100.00;99839.03;10587216;28;20050;-67
2021/11/02 02:08:09;;;;;;;8.38;4.40;;;;;;;5.23;100.00;99844.31;10586739;28;20047;-66
2021/11/02 02:13:22;;;;;;;9.85;4.88;;;;;;;5.50;100.00;99839.47;10586547;28;20055;-67
2021/11/02 02:18:43;;;;;;;8.93;5.38;;;;;;;5.50;100.00;99838.63;10568332;28;20070;-66
2021/11/02 02:24:23;;;;;;;9.50;4.75;;;;;;;5.62;100.00;99829.38;10586381;28;20043;-66
2021/11/02 02:29:34;;;;;;;8.68;4.88;;;;;;;5.63;100.00;99826.69;10586462;28;20043;-65
2021/11/02 02:34:38;;;;;;;10.77;4.38;;;;;;;5.37;100.00;99834.06;10585932;28;20046;-67
2021/11/02 02:39:41;;;;;;;11.95;5.32;;;;;;;5.37;100.00;99828.03;10568142;28;20051;-66
2021/11/02 02:44:46;;;;;;;22.40;8.82;;;;;;;5.23;100.00;99833.94;10567373;28;20078;-66
2021/11/02 02:49:50;;;;;;;9.82;5.45;;;;;;;5.45;100.00;99831.09;10567118;28;20168;-66
2021/11/02 02:54:52;;;;;;;7.22;4.60;;;;;;;5.39;100.00;99824.44;10566922;28;20050;-67
2021/11/02 02:59:55;;;;;;;11.50;5.57;;;;;;;5.43;100.00;99819.09;10566604;28;20510;-67
2021/11/02 03:05:00;;;;;;;6.88;5.20;;;;;;;5.59;100.00;99828.59;10566427;28;20044;-66
2021/11/02 03:10:04;;;;;;;11.88;6.55;;;;;;;5.48;100.00;99830.06;10584223;28;20048;-67
2021/11/02 03:43:39;;;;;;;9.82;5.75;;;;;;;5.34;100.00;99823.00;10583772;28;20047;-67
2021/11/02 03:58:24;;;;;;;7.80;5.20;;;;;;;5.35;100.00;99845.44;10567397;28;20124;-67
2021/11/02 04:36:19;;;;;;;7.75;5.63;;;;;;;5.02;100.00;99844.44;10581591;28;20051;-66
2021/11/02 05:08:13;;;;;;;9.17;6.10;;;;;;;5.43;100.00;99837.25;10589967;28;20051;-67
2021/11/02 06:28:36;;;;;;;23.03;7.27;;;;;;;5.46;100.00;99824.13;10586583;28;20051;-66
2021/11/02 06:49:59;;;;;;;9.55;6.70;;;;;;;5.37;100.00;99848.81;10548041;28;20054;-66
2021/11/02 07:00:52;;;;;;;11.20;7.45;;;;;;;5.30;100.00;99869.03;10585182;28;20406;-67
2021/11/02 08:47:47;;;;;;;9.40;5.60;;;;;;;7.50;100.00;99869.22;10566172;28;20048;-67
2021/11/02 08:52:51;;;;;;;8.07;6.05;;;;;;;7.69;100.00;99868.94;10563771;28;20062;-62
2021/11/02 08:57:56;;;;;;;8.48;5.32;;;;;;;9.03;100.00;99868.41;10581153;28;20396;-63
2021/11/02 09:03:13;;;;;;;6.60;4.78;;;;;;;8.49;100.00;99868.41;10581555;28;20048;-63
2021/11/02 09:08:16;;;;;;;9.35;5.45;;;;;;;7.96;100.00;99868.19;10581028;28;20515;-64
2021/11/02 09:13:23;;;;;;;9.73;5.93;;;;;;;8.13;100.00;99872.38;10562889;28;20079;-63
2021/11/02 09:18:25;;;;;;;8.10;4.88;;;;;;;8.18;100.00;99873.75;10581021;28;20070;-62
2021/11/02 09:23:28;;;;;;;6.68;5.10;;;;;;;8.33;100.00;99876.34;10562729;28;20066;-62
2021/11/02 09:28:30;;;;;;;5.38;4.75;;;;;;;8.27;100.00;99877.59;10585157;28;20048;-60
2021/11/02 09:33:33;;;;;;;11.45;5.07;;;;;;;8.23;100.00;99878.69;10570004;28;20479;-62
2021/11/02 09:38:46;;;;;;;8.20;5.35;;;;;;;8.07;100.00;99877.97;10588785;28;20055;-63
2021/11/02 09:44:09;;;;;;;12.00;5.65;;;;;;;7.92;100.00;99883.19;10587831;28;20058;-62
2021/11/02 09:49:42;;;;;;;8.90;5.70;;;;;;;8.04;100.00;99881.59;10569699;28;20127;-63
2021/11/02 09:55:19;;;;;;;9.18;5.72;;;;;;;8.18;100.00;99889.41;10588093;28;20039;-63
2021/11/02 10:00:40;;;;;;;9.23;6.05;;;;;;;8.13;100.00;99895.84;10586905;28;20517;-63
2021/11/02 10:05:52;;;;;;;;;;;;;;;8.09;100.00;99891.75;10587630;28;20069;-63
2021/11/02 10:11:19;;;;;;;11.30;5.50;;;;;;;8.63;100.00;99885.81;10586786;28;19920;-63
2021/11/02 10:16:29;;;;;;;11.48;6.45;;;;;;;8.46;100.00;99882.50;10586965;28;20043;-62
2021/11/02 10:21:53;;;;;;;10.25;6.68;;;;;;;8.78;100.00;99881.41;10568256;28;20483;-61
2021/11/02 10:27:01;;;;;;;9.95;6.85;;;;;;;8.99;100.00;99879.97;10568351;28;20399;-63
2021/11/02 10:32:28;;;;;;;8.63;6.47;;;;;;;9.54;100.00;99880.69;10585972;28;20051;-63
2021/11/02 10:37:55;;;;;;;12.50;6.32;;;;;;;8.96;100.00;99876.72;10572902;28;20505;-63
2021/11/02 10:43:02;;;;;;;9.35;7.10;;;;;;;9.25;100.00;99882.66;10585561;28;20379;-63
2021/11/02 10:48:09;;;;;;;9.90;6.78;;;;;;;9.62;100.00;99872.34;10585373;28;20048;-62
2021/11/02 10:53:14;;;;;;;11.48;6.88;;;;;;;9.56;100.00;99884.03;10585228;28;20112;-64
2021/11/02 10:58:26;;;;;;;8.48;6.60;;;;;;;9.55;100.00;99876.31;10585295;28;20051;-61
2021/11/02 11:03:30;;;;;;;7.13;6.25;;;;;;;9.40;100.00;99867.75;10584723;28;20047;-62
2021/11/02 11:08:35;;;;;;;7.97;6.75;;;;;;;9.65;100.00;99867.75;10584963;28;20048;-62
2021/11/02 11:13:39;;;;;;;6.65;5.65;;;;;;;9.63;100.00;99874.00;10584276;28;20456;-61
2021/11/02 11:19:07;;;;;;;7.57;5.43;;;;;;;9.49;100.00;99874.94;10584102;28;20100;-64
2021/11/02 11:24:24;;;;;;;10.20;6.47;;;;;;;9.38;100.00;99865.25;10583854;28;20058;-63
2021/11/02 11:29:27;;;;;;;8.57;6.22;;;;;;;9.80;100.00;99858.03;10565679;28;20039;-62
2021/11/02 11:34:35;;;;;;;7.30;6.15;;;;;;;9.76;100.00;99853.09;10565597;28;20093;-62
2021/11/02 11:39:38;;;;;;;12.90;5.93;;;;;;;9.98;100.00;99858.50;10582848;28;20518;-62
2021/11/02 11:44:46;;;;;;;11.88;6.35;;;;;;;10.44;100.00;99857.09;10582570;28;20429;-62
2021/11/02 11:49:49;;;;;;;11.15;6.35;;;;;;;9.98;100.00;99855.06;10564925;28;20047;-63
2021/11/02 11:54:55;;;;;;;7.07;5.88;;;;;;;9.84;100.00;99854.25;10582796;28;20047;-62
2021/11/02 12:00:08;;;;;;;6.53;5.90;;;;;;;10.04;100.00;99844.19;10583203;28;20058;-62
2021/11/02 12:05:18;;;;;;;7.30;5.45;;;;;;;10.31;100.00;99844.00;10580635;28;20613;-62
2021/11/02 12:10:25;;;;;;;9.98;6.18;;;;;;;10.60;100.00;99828.84;10564355;28;20043;-63
2021/11/02 12:15:59;;;;;;;9.38;5.95;;;;;;;10.46;100.00;99829.00;10565054;28;20047;-62
2021/11/02 12:21:05;;;;;;;9.97;6.40;;;;;;;9.97;100.00;99829.84;10581972;28;20487;-62
2021/11/02 12:26:09;;;;;;;7.30;5.85;;;;;;;10.15;100.00;99831.16;10563839;28;20047;-61
2021/11/02 12:31:14;;;;;;;7.82;6.55;;;;;;;9.93;100.00;99817.94;10581641;28;20047;-59
2021/11/02 12:36:25;;;;;;;10.10;6.97;;;;;;;10.49;100.00;99809.63;10581845;28;20071;-60
2021/11/02 12:41:27;;;;;;;9.20;7.00;;;;;;;10.47;100.00;99811.53;10581712;28;20063;-59
2021/11/02 12:46:31;;;;;;;7.07;6.35;;;;;;;10.10;100.00;99806.28;10581782;28;20061;-62
2021/11/02 12:51:39;;;;;;;11.23;6.03;;;;;;;10.41;100.00;99803.16;10581264;28;20050;-59
2021/11/02 12:56:43;;;;;;;7.53;5.95;;;;;;;10.83;100.00;99801.94;10581442;28;20044;-59
2021/11/02 13:01:45;;;;;;;8.18;7.07;;;;;;;10.68;100.00;99801.28;10582901;28;20403;-58
2021/11/02 13:06:52;;;;;;;10.77;6.18;;;;;;;10.50;100.00;99801.66;10589970;28;20130;-60
2021/11/02 13:12:10;;;;;;;6.32;5.72;;;;;;;10.63;100.00;99798.16;10589148;28;20047;-60
2021/11/02 13:17:19;;;;;;;7.88;5.30;;;;;;;10.58;100.00;99803.72;10589359;28;20048;-60
2021/11/02 13:22:24;;;;;;;9.23;5.90;;;;;;;10.39;100.00;99797.22;10588470;28;20055;-61
2021/11/02 13:27:33;;;;;;;8.30;6.22;;;;;;;10.23;100.00;99796.63;10589283;28;20081;-59
2021/11/02 13:32:35;;;;;;;9.30;6.20;;;;;;;10.26;100.00;99799.03;10588711;28;20407;-59
2021/11/02 13:37:37;;;;;;;6.95;6.35;;;;;;;10.02;100.00;99799.00;10588286;28;20082;-59
2021/11/02 13:42:50;;;;;;;9.20;6.88;;;;;;;10.14;100.00;99797.28;10587818;28;20063;-61
2021/11/02 13:47:52;;;;;;;8.70;7.30;;;;;;;10.18;100.00;99798.72;10587806;28;20047;-60
2021/11/02 13:52:56;;;;;;;11.23;7.32;;;;;;;9.93;100.00;99797.84;10587849;28;20050;-59
2021/11/02 13:57:58;;;;;;;8.88;7.97;;;;;;;9.94;100.00;99799.53;10587609;28;20050;-62
2021/11/02 14:03:04;;;;;;;18.40;9.98;;;;;;;9.75;100.00;99797.38;10587079;28;20050;-61
2021/11/02 14:08:07;;;;;;;13.98;7.13;;;;;;;9.85;100.00;99803.63;10568915;28;20487;-61
2021/11/02 14:13:13;;;;;;;7.55;6.07;;;;;;;9.72;100.00;99799.38;10586412;28;20048;-63
2021/11/02 14:18:19;;;;;;;6.55;5.78;;;;;;;9.85;100.00;99808.00;10587148;28;20054;-61
2021/11/02 14:23:30;;;;;;;4.93;4.45;;;;;;;9.83;100.00;99812.50;10586463;28;20510;-61
2021/11/02 14:28:33;;;;;;;8.13;4.70;;;;;;;9.85;100.00;99808.88;10586586;28;20055;-62
2021/11/02 14:33:48;;;;;;;5.05;4.65;;;;;;;9.63;100.00;99806.91;10586104;28;20043;-61
2021/11/02 14:38:50;;;;;;;9.05;4.65;;;;;;;9.71;100.00;99802.94;10585924;28;20403;-61
2021/11/02 14:44:27;;;;;;;6.65;4.78;;;;;;;9.46;100.00;99810.69;10585548;28;20044;-60
2021/11/02 14:49:30;;;;;;;6.00;4.70;;;;;;;9.35;100.00;99812.38;10585135;28;20495;-60
2021/11/02 14:54:43;;;;;;;7.53;4.15;;;;;;;9.47;100.00;99819.34;10585130;28;20048;-60
2021/11/02 14:59:55;;;;;;;8.20;5.47;;;;;;;9.62;100.00;99812.25;10584891;28;20048;-63
2021/11/02 15:05:04;;;;;;;6.60;5.30;;;;;;;9.86;100.00;99818.38;10584845;28;20047;-60
2021/11/02 15:10:09;;;;;;;6.28;5.00;;;;;;;9.69;100.00;99817.88;10584861;28;20104;-60
2021/11/02 15:15:11;;;;;;;3.60;3.40;;;;;;;9.41;100.00;99822.38;10584278;28;20046;-63
2021/11/02 15:20:22;;;;;;;5.22;4.20;;;;;;;9.34;100.00;99819.34;10566323;28;20048;-61
2021/11/02 15:25:24;;;;;;;5.07;4.65;;;;;;;9.21;100.00;99826.34;10583199;28;20506;-61
2021/11/02 15:30:28;;;;;;;7.65;4.75;;;;;;;9.48;100.00;99826.22;10584292;28;20047;-60
2021/11/02 15:35:31;;;;;;;7.40;5.72;;;;;;;9.09;100.00;99834.06;10583580;28;20043;-61
2021/11/02 15:40:39;;;;;;;6.70;5.63;;;;;;;9.17;100.00;99827.50;10583227;28;20047;-60
2021/11/02 15:45:48;;;;;;;6.50;5.90;;;;;;;8.97;100.00;99839.25;10583413;28;20051;-61
2021/11/02 15:50:54;;;;;;;10.18;6.63;;;;;;;8.87;100.00;99839.84;10582907;28;20127;-61
2021/11/02 15:55:59;;;;;;;8.43;6.82;;;;;;;9.09;100.00;99830.59;10582763;28;20043;-62
2021/11/02 16:01:02;;;;;;;8.38;6.82;;;;;;;8.96;100.00;99840.19;10582534;28;20054;-62
2021/11/02 16:06:05;;;;;;;6.85;6.25;;;;;;;8.83;100.00;99846.22;10582844;28;20040;-60
2021/11/02 16:11:11;;;;;;;8.45;7.15;;;;;;;8.99;100.00;99847.81;10582168;28;20057;-60
2021/11/02 16:16:14;;;;;;;8.38;7.45;;;;;;;8.95;100.00;99849.81;10581981;28;20414;-61
2021/11/02 16:21:23;;;;;;;9.50;8.48;;;;;;;8.93;100.00;99849.06;10582356;28;20051;-61
2021/11/02 16:26:29;;;;;;;7.35;6.65;;;;;;;9.14;100.00;99848.59;10582013;28;20506;-60
2021/11/02 16:31:34;;;;;;;10.20;9.10;;;;;;;8.68;100.00;99853.28;10582151;28;20104;-61
2021/11/02 16:36:39;;;;;;;14.18;9.48;;;;;;;8.68;100.00;99858.50;10584259;28;20061;-60
2021/11/02 16:41:43;;;;;;;12.05;10.18;;;;;;;8.70;100.00;99855.78;10588257;28;20051;-61
2021/11/02 16:46:51;;;;;;;10.80;9.73;;;;;;;8.72;100.00;99861.72;10590248;28;20052;-61
2021/11/02 16:51:58;;;;;;;12.10;10.73;;;;;;;8.46;100.00;99873.84;10590338;28;20054;-59
2021/11/02 16:57:03;;;;;;;15.50;12.10;;;;;;;8.48;100.00;99874.59;10555334;28;20047;-60
2021/11/02 17:02:19;;;;;;;14.10;12.60;;;;;;;8.04;100.00;99878.19;10590150;28;20051;-61
2021/11/02 17:07:35;;;;;;;13.88;11.45;;;;;;;8.25;100.00;99887.25;10589489;28;20574;-61
2021/11/02 17:12:40;;;;;;;13.88;11.65;;;;;;;7.90;100.00;99881.59;10589576;28;20050;-61
2021/11/02 17:17:44;;;;;;;14.07;12.52;;;;;;;8.09;100.00;99883.94;10589049;28;20046;-59
2021/11/02 17:22:46;;;;;;;16.33;13.82;;;;;;;7.95;100.00;99884.75;10570650;28;20040;-60
2021/11/02 17:27:51;;;;;;;20.75;15.00;;;;;;;7.78;100.00;99896.22;10589381;28;20052;-59
2021/11/02 17:32:57;;;;;;;24.10;18.15;;;;;;;7.57;100.00;99900.94;10588502;28;20047;-62
2021/11/02 17:38:01;;;;;;;21.85;16.35;;;;;;;7.52;100.00;99916.84;10570101;28;20058;-61
2021/11/02 17:43:04;;;;;;;25.30;18.33;;;;;;;7.66;100.00;99923.00;10587798;28;20055;-60
2021/11/02 17:48:07;;;;;;;24.38;17.20;;;;;;;7.28;100.00;99929.53;10586962;28;20040;-59
2021/11/02 17:53:10;;;;;;;24.10;18.38;;;;;;;7.32;100.00;99933.63;10587573;28;20414;-60
2021/11/02 17:58:13;;;;;;;26.25;19.63;;;;;;;7.32;100.00;99941.44;10588268;28;20047;-60
2021/11/02 18:03:15;;;;;;;21.63;17.27;;;;;;;7.36;100.00;99950.78;10587244;28;20497;-60
2021/11/02 18:08:19;;;;;;;27.85;20.27;;;;;;;7.27;100.00;99964.31;10587023;28;20048;-60
2021/11/02 18:13:21;;;;;;;35.53;22.92;;;;;;;7.23;100.00;99958.44;10587005;28;20043;-59
2021/11/02 18:18:26;;;;;;;38.20;22.52;;;;;;;7.33;100.00;99969.16;10586822;28;20058;-61
2021/11/02 18:23:29;;;;;;;24.73;18.30;;;;;;;7.46;100.00;99966.69;10586578;28;20039;-59
2021/11/02 18:28:32;;;;;;;37.38;23.85;;;;;;;7.16;100.00;99971.88;10586879;28;20051;-60
2021/11/02 18:33:35;;;;;;;24.63;19.27;;;;;;;7.42;100.00;99965.19;10585987;28;20059;-60
2021/11/02 18:38:39;;;;;;;27.38;19.52;;;;;;;7.57;100.00;99974.72;10585766;28;20077;-61
2021/11/02 18:43:42;;;;;;;32.97;22.35;;;;;;;7.42;100.00;99975.59;10585464;28;20097;-60
2021/11/02 18:48:46;;;;;;;30.90;22.30;;;;;;;7.40;100.00;99978.28;10567570;28;20043;-61
2021/11/02 18:53:48;;;;;;;28.65;21.38;;;;;;;7.30;100.00;99982.34;10585322;28;20047;-60
2021/11/02 18:58:51;;;;;;;35.67;23.85;;;;;;;7.19;100.00;99982.13;10565998;28;20059;-60
2021/11/02 19:03:55;;;;;;;32.80;22.45;;;;;;;7.22;100.00;99985.38;10585270;28;20039;-60
2021/11/02 19:08:57;;;;;;;33.45;20.65;;;;;;;7.42;100.00;99999.88;10584512;28;20074;-59
2021/11/02 19:14:03;;;;;;;25.55;19.27;;;;;;;7.42;100.00;99996.44;10584975;28;20043;-59
2021/11/02 19:19:06;;;;;;;38.78;24.80;;;;;;;7.33;100.00;99999.56;10584263;28;20043;-60
2021/11/02 19:24:08;;;;;;;29.70;20.02;;;;;;;7.37;100.00;100006.28;10584466;28;20040;-61
2021/11/02 19:29:10;;;;;;;28.40;20.73;;;;;;;7.31;100.00;100006.63;10583358;28;20056;-60
2021/11/02 19:34:14;;;;;;;27.90;20.45;;;;;;;7.20;100.00;100017.66;10565699;28;20047;-61
2021/11/02 19:39:17;;;;;;;32.40;20.20;;;;;;;7.15;100.00;100011.88;10583474;28;20056;-60
2021/11/02 19:44:24;;;;;;;33.72;21.58;;;;;;;7.15;100.00;100017.91;10566386;28;20043;-59
2021/11/02 19:49:27;;;;;;;30.65;21.80;;;;;;;7.22;100.00;100018.41;10583057;28;20039;-58
2021/11/02 19:54:31;;;;;;;36.45;21.95;;;;;;;6.71;100.00;100018.56;10565034;28;20376;-63
2021/11/02 19:59:33;;;;;;;24.52;17.25;;;;;;;7.32;100.00;100026.53;10582655;28;20058;-59
2021/11/02 20:04:35;;;;;;;41.00;22.30;;;;;;;7.00;100.00;100022.19;10582737;28;20056;-61
2021/11/02 20:09:42;;;;;;;38.70;24.25;;;;;;;7.22;100.00;100029.66;10581816;28;20044;-61
2021/11/02 20:14:45;;;;;;;38.13;24.45;;;;;;;7.52;100.00;100034.06;10564553;28;20478;-60
2021/11/02 20:19:47;;;;;;;36.03;23.35;;;;;;;7.20;100.00;100043.69;10564494;28;20055;-59
2021/11/02 20:24:50;;;;;;;38.92;24.05;;;;;;;7.46;100.00;100064.81;10582461;28;20399;-61
2021/11/02 20:29:54;;;;;;;25.85;19.33;;;;;;;7.49;100.00;100067.25;10581816;28;20047;-61
2021/11/02 20:34:56;;;;;;;28.77;19.08;;;;;;;7.28;100.00;100072.75;10582332;28;20079;-61
2021/11/02 20:40:03;;;;;;;32.15;20.80;;;;;;;7.44;100.00;100077.94;10581794;28;20051;-59
2021/11/02 20:45:09;;;;;;;25.27;18.30;;;;;;;7.45;100.00;100082.22;10581787;28;20051;-62
2021/11/02 20:50:12;;;;;;;34.20;22.80;;;;;;;7.33;100.00;100062.06;10581277;28;20047;-61
2021/11/02 20:55:15;;;;;;;26.48;18.15;;;;;;;7.70;100.00;100073.00;10564222;28;20054;-60
2021/11/02 21:00:19;;;;;;;29.85;20.65;;;;;;;7.33;100.00;100067.25;10581057;28;20044;-60
2021/11/02 21:05:25;;;;;;;25.73;18.25;;;;;;;7.68;100.00;100064.44;10581221;28;20507;-60
2021/11/02 21:10:31;;;;;;;28.40;17.83;;;;;;;7.54;100.00;100060.84;10580914;28;20055;-61
2021/11/02 21:15:43;;;;;;;29.63;20.05;;;;;;;7.37;100.00;100059.19;10581161;28;20051;-60
2021/11/02 21:20:45;;;;;;;38.13;22.63;;;;;;;6.91;100.00;100050.47;10580747;28;20136;-60
2021/11/02 21:25:49;;;;;;;24.83;17.20;;;;;;;7.13;100.00;100050.13;10569552;28;20044;-61
2021/11/02 21:30:53;;;;;;;30.08;19.42;;;;;;;6.83;100.00;100043.91;10588318;28;20506;-60
2021/11/02 21:35:57;;;;;;;31.73;21.20;;;;;;;6.44;100.00;100039.06;10588903;28;20047;-60
2021/11/02 21:41:02;;;;;;;53.30;25.95;;;;;;;6.29;100.00;100041.56;10588070;28;20518;-60
2021/11/02 21:46:07;;;;;;;29.75;20.50;;;;;;;6.32;100.00;100036.19;10588007;28;20047;-60
2021/11/02 21:51:11;;;;;;;32.40;20.92;;;;;;;6.16;100.00;100040.50;10569812;28;20039;-61
2021/11/02 21:56:18;;;;;;;31.83;23.02;;;;;;;6.17;100.00;100041.34;10570693;28;20039;-62
2021/11/02 22:01:22;;;;;;;26.70;19.65;;;;;;;6.50;100.00;100036.16;10587533;28;20055;-61
2021/11/02 22:06:25;;;;;;;41.65;26.58;;;;;;;6.24;100.00;100038.34;10569810;28;20044;-60
2021/11/02 22:11:27;;;;;;;65.03;31.73;;;;;;;5.92;100.00;100040.78;10586948;28;20050;-60
2021/11/02 22:16:30;;;;;;;47.92;27.77;;;;;;;5.86;100.00;100029.88;10586920;28;20411;-60
2021/11/02 22:21:33;;;;;;;54.80;32.35;;;;;;;5.77;100.00;100026.81;10586574;28;20048;-62
2021/11/02 22:26:35;;;;;;;53.53;29.85;;;;;;;5.77;100.00;100025.97;10586570;28;20059;-60
2021/11/02 22:31:38;;;;;;;36.80;25.83;;;;;;;5.58;100.00;100033.81;10585859;28;20054;-60
2021/11/02 22:36:40;;;;;;;63.58;34.53;;;;;;;5.35;100.00;100025.41;10585945;28;20391;-62
2021/11/02 22:41:43;;;;;;;42.75;26.75;;;;;;;5.20;100.00;100018.34;10585680;28;20074;-60
2021/11/02 22:46:46;;;;;;;35.03;23.40;;;;;;;5.30;100.00;100029.97;10585722;28;20047;-60
2021/11/02 22:51:51;;;;;;;48.25;30.75;;;;;;;5.19;100.00;100025.28;10585301;28;20101;-60
2021/11/02 22:56:53;;;;;;;51.15;29.90;;;;;;;5.52;100.00;100029.78;10567713;28;20047;-59
2021/11/02 23:01:57;;;;;;;40.28;27.80;;;;;;;5.17;100.00;100034.06;10584806;28;20518;-60
2021/11/02 23:06:59;;;;;;;80.32;38.42;;;;;;;4.98;100.00;100027.13;10585111;28;20058;-60
2021/11/02 23:12:02;;;;;;;53.38;29.30;;;;;;;4.87;100.00;100031.97;10566289;28;20048;-59
2021/11/02 23:17:04;;;;;;;132.68;44.25;;;;;;;4.78;100.00;100024.63;10584241;28;20505;-60
2021/11/02 23:22:07;;;;;;;43.05;27.60;;;;;;;5.06;100.00;100016.41;10584208;28;20048;-60
2021/11/02 23:27:09;;;;;;;53.70;32.00;;;;;;;4.99;100.00;100025.38;10584036;28;20488;-60
2021/11/02 23:32:14;;;;;;;55.20;33.60;;;;;;;4.77;100.00;100020.34;10565374;28;20514;-60
2021/11/02 23:37:16;;;;;;;48.72;30.40;;;;;;;4.57;100.00;100024.69;10583755;28;20044;-60
2021/11/02 23:42:19;;;;;;;56.13;36.92;;;;;;;4.70;100.00;100026.72;10583487;28;20050;-60
2021/11/02 23:47:22;;;;;;;74.35;35.58;;;;;;;4.55;100.00;100039.44;10582524;28;20048;-60
2021/11/02 23:52:24;;;;;;;46.97;28.02;;;;;;;4.75;100.00;100037.72;10583366;28;20044;-59
2021/11/02 23:57:26;;;;;;;34.47;23.48;;;;;;;4.62;100.00;100038.28;10583135;28;20044;-60
